createdAt,value
2024-04-24T00:00:10.162Z,2.22
2024-04-24T00:02:37.035Z,2.45
2024-04-24T00:05:05.627Z,2.00
2024-04-24T00:07:32.778Z,1.70
2024-04-24T00:09:59.439Z,1.90
2024-04-24T00:12:26.004Z,2.20
2024-04-24T00:14:52.665Z,1.75
2024-04-24T00:17:19.483Z,1.70
2024-04-24T00:19:46.237Z,1.37
2024-04-24T00:22:12.901Z,2.38
2024-04-24T00:24:39.512Z,2.10
2024-04-24T00:27:06.117Z,2.47
2024-04-24T00:29:32.759Z,1.80
2024-04-24T00:32:06.429Z,2.10
2024-04-24T00:34:34.215Z,2.20
2024-04-24T00:37:00.966Z,2.25
2024-04-24T00:39:27.626Z,2.38
2024-04-24T00:41:54.315Z,2.03
2024-04-24T00:44:20.977Z,1.60
2024-04-24T00:46:47.887Z,3.03
2024-04-24T00:49:15.951Z,2.00
2024-04-24T00:51:44.518Z,2.15
2024-04-24T00:54:11.634Z,2.38
2024-04-24T00:56:38.314Z,2.03
2024-04-24T00:59:05.229Z,2.03
2024-04-24T01:01:31.908Z,2.55
2024-04-24T01:03:58.627Z,2.35
2024-04-24T01:06:25.258Z,2.20
2024-04-24T01:08:51.985Z,2.20
2024-04-24T01:11:18.744Z,2.28
2024-04-24T01:13:45.484Z,2.28
2024-04-24T01:16:24.709Z,1.90
2024-04-24T01:19:03.032Z,2.05
2024-04-24T01:21:54.695Z,2.37
2024-04-24T01:24:30.819Z,2.60
2024-04-24T01:26:58.146Z,2.97
2024-04-24T01:29:24.898Z,1.88
2024-04-24T01:31:51.600Z,2.75
2024-04-24T01:34:18.299Z,1.90
2024-04-24T01:36:44.960Z,2.03
2024-04-24T01:39:11.551Z,2.25
2024-04-24T01:41:38.202Z,2.25
2024-04-24T01:44:04.857Z,2.13
2024-04-24T01:46:31.550Z,2.37
2024-04-24T01:48:58.237Z,2.88
2024-04-24T01:51:24.831Z,2.58
2024-04-24T01:53:52.411Z,2.22
2024-04-24T01:56:19.215Z,2.75
2024-04-24T01:58:46.302Z,2.80
2024-04-24T02:01:12.982Z,2.25
2024-04-24T02:03:39.637Z,2.53
2024-04-24T02:06:07.040Z,2.30
2024-04-24T02:08:35.592Z,2.40
2024-04-24T02:11:02.746Z,2.40
2024-04-24T02:13:29.374Z,2.30
2024-04-24T02:15:55.973Z,2.63
2024-04-24T02:18:22.722Z,2.42
2024-04-24T02:20:49.597Z,2.15
2024-04-24T02:23:21.700Z,2.10
2024-04-24T02:25:49.989Z,2.42
2024-04-24T02:28:16.803Z,2.67
2024-04-24T02:30:43.433Z,2.13
2024-04-24T02:33:10.231Z,1.80
2024-04-24T02:35:37.133Z,2.20
2024-04-24T02:38:04.090Z,2.00
2024-04-24T02:40:30.738Z,2.60
2024-04-24T02:42:57.405Z,1.90
2024-04-24T02:45:23.997Z,2.45
2024-04-24T02:47:50.735Z,2.40
2024-04-24T02:50:17.468Z,2.60
2024-04-24T02:52:44.152Z,2.40
2024-04-24T02:55:10.839Z,2.80
2024-04-24T02:57:37.473Z,2.28
2024-04-24T03:00:04.491Z,2.30
2024-04-24T03:02:31.180Z,2.10
2024-04-24T03:04:57.935Z,2.78
2024-04-24T03:07:24.574Z,2.10
2024-04-24T03:09:51.187Z,1.98
2024-04-24T03:12:17.942Z,1.90
2024-04-24T03:14:46.639Z,2.10
2024-04-24T03:17:13.566Z,2.05
2024-04-24T03:19:40.293Z,1.60
2024-04-24T03:22:06.887Z,2.22
2024-04-24T03:24:33.820Z,1.80
2024-04-24T03:27:00.538Z,2.10
2024-04-24T03:29:27.311Z,1.92
2024-04-24T03:31:54.059Z,2.15
2024-04-24T03:34:20.749Z,2.72
2024-04-24T03:36:47.371Z,2.37
2024-04-24T03:39:14.304Z,2.63
2024-04-24T03:41:41.080Z,2.85
2024-04-24T03:44:07.796Z,2.10
2024-04-24T03:46:34.509Z,2.72
2024-04-24T03:49:01.243Z,2.10
2024-04-24T03:51:27.997Z,4.72
2024-04-24T03:53:54.643Z,2.50
2024-04-24T03:56:21.336Z,2.10
2024-04-24T03:58:48.120Z,2.35
2024-04-24T04:01:15.793Z,2.20
2024-04-24T04:03:42.606Z,2.25
2024-04-24T04:06:09.223Z,2.53
2024-04-24T04:08:35.835Z,2.25
2024-04-24T04:11:03.385Z,2.20
2024-04-24T04:13:30.030Z,2.20
2024-04-24T04:15:56.723Z,2.28
2024-04-24T04:18:23.512Z,2.20
2024-04-24T04:20:50.204Z,2.58
2024-04-24T04:23:16.910Z,2.30
2024-04-24T04:25:43.648Z,2.20
2024-04-24T04:28:10.284Z,1.83
2024-04-24T04:30:36.907Z,1.98
2024-04-24T04:33:03.760Z,2.45
2024-04-24T04:35:30.459Z,2.25
2024-04-24T04:37:57.085Z,2.13
2024-04-24T04:40:23.740Z,2.28
2024-04-24T04:42:50.676Z,2.80
2024-04-24T04:45:18.416Z,2.33
2024-04-24T04:47:45.210Z,2.75
2024-04-24T04:50:12.045Z,2.20
2024-04-24T04:52:38.753Z,2.35
2024-04-24T04:55:05.643Z,2.80
2024-04-24T04:57:32.275Z,2.97
2024-04-24T04:59:58.940Z,2.67
2024-04-24T05:02:25.721Z,3.10
2024-04-24T05:04:52.579Z,2.30
2024-04-24T05:07:19.252Z,2.10
2024-04-24T05:09:45.887Z,2.00
2024-04-24T05:12:12.539Z,2.45
2024-04-24T05:14:39.193Z,2.23
2024-04-24T05:17:06.023Z,2.42
2024-04-24T05:19:32.675Z,2.80
2024-04-24T05:21:59.349Z,2.15
2024-04-24T05:24:26.008Z,2.88
2024-04-24T05:27:12.856Z,2.30
2024-04-24T05:29:39.433Z,2.60
2024-04-24T05:32:06.100Z,3.05
2024-04-24T05:34:32.742Z,2.50
2024-04-24T05:36:59.422Z,2.40
2024-04-24T05:39:26.026Z,2.10
2024-04-24T05:41:52.684Z,3.30
2024-04-24T05:44:19.781Z,2.90
2024-04-24T05:46:46.556Z,2.38
2024-04-24T05:49:13.266Z,2.63
2024-04-24T05:51:39.912Z,2.77
2024-04-24T05:54:06.566Z,2.28
2024-04-24T05:56:33.210Z,2.78
2024-04-24T05:59:00.039Z,2.40
2024-04-24T06:01:26.768Z,2.53
2024-04-24T06:03:53.428Z,2.57
2024-04-24T06:06:20.069Z,3.80
2024-04-24T06:08:46.697Z,2.70
2024-04-24T06:11:13.610Z,2.72
2024-04-24T06:13:40.368Z,2.60
2024-04-24T06:16:07.344Z,1.97
2024-04-24T06:18:34.075Z,2.70
2024-04-24T06:21:00.802Z,3.38
2024-04-24T06:23:27.456Z,2.40
2024-04-24T06:25:54.202Z,2.65
2024-04-24T06:28:21.766Z,2.37
2024-04-24T06:30:48.587Z,2.65
2024-04-24T06:33:15.327Z,2.17
2024-04-24T06:35:42.117Z,2.30
2024-04-24T06:38:09.436Z,2.65
2024-04-24T06:40:36.228Z,2.47
2024-04-24T06:43:03.870Z,2.00
2024-04-24T06:45:30.548Z,2.20
2024-04-24T06:47:57.299Z,1.95
2024-04-24T06:50:24.029Z,2.05
2024-04-24T06:52:50.778Z,4.60
2024-04-24T06:55:18.381Z,2.92
2024-04-24T06:57:45.023Z,2.08
2024-04-24T07:00:11.934Z,1.80
2024-04-24T07:02:38.607Z,1.80
2024-04-24T07:05:05.619Z,2.10
2024-04-24T07:07:32.379Z,1.67
2024-04-24T07:09:59.034Z,2.40
2024-04-24T07:12:25.724Z,2.95
2024-04-24T07:14:52.599Z,2.05
2024-04-24T07:17:19.300Z,3.33
2024-04-24T07:19:45.954Z,2.15
2024-04-24T07:22:12.574Z,6.47
2024-04-24T07:24:39.241Z,2.42
2024-04-24T07:27:05.853Z,2.55
2024-04-24T07:29:32.766Z,2.70
2024-04-24T07:31:59.492Z,2.47
2024-04-24T07:34:26.322Z,2.78
2024-04-24T07:36:52.947Z,4.22
2024-04-24T07:39:19.620Z,2.60
2024-04-24T07:41:46.288Z,3.70
2024-04-24T07:44:13.210Z,2.17
2024-04-24T07:46:39.922Z,2.53
2024-04-24T07:49:06.545Z,2.15
2024-04-24T07:51:33.174Z,2.15
2024-04-24T07:53:59.833Z,1.97
2024-04-24T07:56:26.542Z,2.15
2024-04-24T07:58:53.314Z,1.80
2024-04-24T08:01:22.599Z,2.58
2024-04-24T08:03:49.644Z,2.25
2024-04-24T08:06:16.454Z,2.30
2024-04-24T08:08:43.203Z,2.53
2024-04-24T08:11:09.892Z,2.58
2024-04-24T08:13:36.660Z,1.92
2024-04-24T08:16:03.507Z,3.00
2024-04-24T08:18:30.195Z,2.53
2024-04-24T08:20:57.637Z,2.63
2024-04-24T08:23:26.805Z,3.28
2024-04-24T08:25:55.446Z,2.40
2024-04-24T08:28:32.635Z,3.17
2024-04-24T08:31:05.515Z,2.00
2024-04-24T08:33:33.493Z,4.18
2024-04-24T08:36:03.083Z,2.65
2024-04-24T08:38:30.343Z,2.63
2024-04-24T08:41:09.826Z,3.63
2024-04-24T08:43:39.078Z,2.67
2024-04-24T08:46:07.642Z,2.70
2024-04-24T08:48:36.249Z,3.53
2024-04-24T08:51:03.613Z,3.92
2024-04-24T08:53:32.826Z,3.05
2024-04-24T08:56:00.790Z,4.03
2024-04-24T08:58:31.044Z,4.65
2024-04-24T09:01:04.851Z,3.97
2024-04-24T09:03:43.077Z,3.50
2024-04-24T09:06:11.109Z,3.55
2024-04-24T09:08:38.592Z,5.17
2024-04-24T09:11:05.668Z,3.10
2024-04-24T09:13:34.085Z,4.47
2024-04-24T09:16:01.755Z,3.17
2024-04-24T09:18:28.517Z,4.43
2024-04-24T09:20:56.599Z,3.23
2024-04-24T09:23:25.618Z,2.92
2024-04-24T09:25:52.889Z,3.00
2024-04-24T09:28:20.494Z,2.15
2024-04-24T09:30:47.433Z,2.63
2024-04-24T09:33:14.603Z,3.23
2024-04-24T09:35:41.492Z,2.90
2024-04-24T09:38:08.468Z,5.18
2024-04-24T09:40:36.136Z,2.63
2024-04-24T09:43:03.937Z,3.25
2024-04-24T09:45:30.888Z,3.37
2024-04-24T09:47:57.990Z,3.15
2024-04-24T09:50:25.779Z,2.80
2024-04-24T09:52:52.707Z,3.67
2024-04-24T09:55:23.140Z,3.80
2024-04-24T09:57:55.987Z,2.37
2024-04-24T10:00:22.961Z,2.33
2024-04-24T10:02:53.514Z,2.00
2024-04-24T10:05:23.982Z,2.40
2024-04-24T10:07:56.820Z,2.78
2024-04-24T10:10:36.083Z,2.30
2024-04-24T10:13:04.875Z,2.58
2024-04-24T10:15:41.296Z,1.73
2024-04-24T10:18:09.984Z,6.85
2024-04-24T10:20:41.538Z,11.85
2024-04-24T10:23:08.496Z,11.07
2024-04-24T10:25:36.328Z,6.10
2024-04-24T10:28:06.949Z,6.45
2024-04-24T10:30:37.580Z,11.80
2024-04-24T10:33:06.851Z,20.55
2024-04-24T10:35:35.098Z,12.83
2024-04-24T10:38:06.136Z,18.58
2024-04-24T10:40:33.492Z,20.83
2024-04-24T10:43:02.029Z,16.27
2024-04-24T10:45:29.592Z,18.15
2024-04-24T10:47:57.529Z,12.40
2024-04-24T10:50:28.915Z,11.50
2024-04-24T10:52:58.809Z,13.88
2024-04-24T10:55:25.462Z,11.02
2024-04-24T10:57:54.411Z,12.02
2024-04-24T11:00:23.093Z,10.10
2024-04-24T11:02:53.539Z,10.80
2024-04-24T11:05:22.760Z,9.30
2024-04-24T11:08:03.794Z,7.78
2024-04-24T11:10:31.951Z,8.02
2024-04-24T11:12:58.670Z,8.73
2024-04-24T11:15:27.435Z,11.38
2024-04-24T11:17:54.272Z,8.13
2024-04-24T11:20:28.643Z,8.88
2024-04-24T11:22:55.714Z,6.47
2024-04-24T11:25:22.443Z,7.03
2024-04-24T11:27:49.085Z,5.90
2024-04-24T11:30:17.427Z,7.65
2024-04-24T11:32:47.956Z,8.05
2024-04-24T11:35:16.264Z,6.03
2024-04-24T11:37:44.266Z,6.13
2024-04-24T11:40:12.139Z,5.03
2024-04-24T11:42:52.076Z,3.95
2024-04-24T11:45:22.809Z,6.32
2024-04-24T11:47:52.097Z,5.88
2024-04-24T11:50:20.178Z,5.30
2024-04-24T11:52:47.266Z,4.28
2024-04-24T11:55:13.966Z,7.82
2024-04-24T11:57:41.139Z,4.70
2024-04-24T12:00:08.671Z,4.25
2024-04-24T12:02:36.040Z,3.63
2024-04-24T12:05:07.620Z,6.20
2024-04-24T12:07:34.735Z,4.47
2024-04-24T12:10:02.591Z,3.38
2024-04-24T12:12:30.072Z,4.05
2024-04-24T12:14:58.121Z,6.37
2024-04-24T12:17:25.145Z,3.45
2024-04-24T12:19:51.920Z,3.70
2024-04-24T12:22:21.460Z,2.67
2024-04-24T12:24:48.047Z,3.22
2024-04-24T12:27:14.642Z,2.53
2024-04-24T12:29:41.277Z,3.53
2024-04-24T12:32:08.296Z,3.00
2024-04-24T12:34:34.993Z,2.97
2024-04-24T12:37:01.650Z,3.97
2024-04-24T12:39:28.234Z,2.57
2024-04-24T12:41:55.015Z,4.95
2024-04-24T12:44:21.709Z,2.92
2024-04-24T12:46:49.425Z,2.83
2024-04-24T12:49:16.103Z,3.65
2024-04-24T12:51:42.878Z,2.80
2024-04-24T12:54:09.505Z,2.72
2024-04-24T12:56:36.189Z,5.70
2024-04-24T12:59:02.872Z,2.67
2024-04-24T13:01:29.536Z,3.70
2024-04-24T13:03:56.309Z,3.50
2024-04-24T13:06:24.391Z,6.35
2024-04-24T13:08:51.349Z,3.15
2024-04-24T13:11:18.240Z,2.90
2024-04-24T13:13:44.918Z,2.97
2024-04-24T13:16:11.584Z,3.60
2024-04-24T13:18:38.567Z,3.53
2024-04-24T13:21:05.588Z,2.20
2024-04-24T13:23:32.322Z,2.13
2024-04-24T13:25:59.085Z,2.15
2024-04-24T13:28:25.760Z,2.20
2024-04-24T13:30:52.374Z,2.70
2024-04-24T13:33:19.501Z,2.42
2024-04-24T13:35:48.728Z,2.58
2024-04-24T13:38:16.869Z,2.63
2024-04-24T13:40:43.536Z,2.50
2024-04-24T13:43:10.193Z,2.55
2024-04-24T13:45:36.799Z,2.30
2024-04-24T13:48:04.842Z,3.45
2024-04-24T13:50:31.813Z,2.53
2024-04-24T13:52:58.576Z,2.43
2024-04-24T13:55:25.229Z,2.00
2024-04-24T13:57:51.834Z,2.50
2024-04-24T14:00:18.769Z,2.00
2024-04-24T14:02:45.631Z,2.20
2024-04-24T14:05:12.521Z,2.00
2024-04-24T14:07:42.167Z,2.08
2024-04-24T14:10:08.914Z,2.20
2024-04-24T14:12:35.509Z,1.95
2024-04-24T14:15:02.077Z,2.15
2024-04-24T14:17:31.110Z,1.73
2024-04-24T14:19:58.015Z,2.05
2024-04-24T14:22:24.710Z,1.80
2024-04-24T14:24:51.615Z,1.85
2024-04-24T14:27:18.346Z,1.77
2024-04-24T14:29:45.159Z,1.60
2024-04-24T14:32:11.956Z,3.47
2024-04-24T14:34:38.775Z,1.85
2024-04-24T14:37:06.100Z,2.33
2024-04-24T14:39:32.970Z,1.85
2024-04-24T14:42:01.746Z,2.33
2024-04-24T14:44:29.059Z,1.80
2024-04-24T14:46:55.807Z,2.08
2024-04-24T14:49:22.552Z,2.58
2024-04-24T14:51:49.349Z,2.00
2024-04-24T14:54:15.988Z,1.87
2024-04-24T14:56:44.409Z,1.98
2024-04-24T14:59:11.139Z,1.80
2024-04-24T15:01:37.884Z,2.30
2024-04-24T15:04:05.441Z,1.92
2024-04-24T15:06:34.907Z,1.67
2024-04-24T15:09:01.567Z,2.40
2024-04-24T15:11:28.668Z,2.22
2024-04-24T15:13:55.449Z,1.70
2024-04-24T15:16:22.208Z,1.80
2024-04-24T15:18:49.244Z,2.03
2024-04-24T15:21:15.954Z,1.70
2024-04-24T15:23:46.276Z,3.33
2024-04-24T15:26:14.543Z,1.83
2024-04-24T15:28:41.227Z,1.80
2024-04-24T15:31:08.681Z,2.17
2024-04-24T15:33:35.576Z,4.40
2024-04-24T15:36:02.221Z,2.22
2024-04-24T15:38:28.995Z,2.83
2024-04-24T15:40:55.986Z,4.47
2024-04-24T15:43:22.692Z,1.60
2024-04-24T15:45:49.994Z,1.90
2024-04-24T15:48:16.942Z,2.58
2024-04-24T15:50:43.598Z,1.90
2024-04-24T15:53:10.283Z,2.13
2024-04-24T15:55:36.904Z,1.67
2024-04-24T15:58:03.609Z,1.60
2024-04-24T16:00:30.358Z,2.05
2024-04-24T16:02:57.012Z,1.90
2024-04-24T16:05:23.794Z,1.50
2024-04-24T16:07:50.583Z,1.73
2024-04-24T16:10:17.407Z,2.10
2024-04-24T16:12:44.295Z,1.90
2024-04-24T16:15:11.196Z,1.98
2024-04-24T16:17:38.335Z,1.45
2024-04-24T16:20:05.862Z,2.20
2024-04-24T16:22:32.508Z,2.03
2024-04-24T16:24:59.147Z,1.98
2024-04-24T16:27:25.980Z,1.73
2024-04-24T16:29:52.660Z,1.90
2024-04-24T16:32:19.426Z,1.63
2024-04-24T16:34:46.222Z,1.92
2024-04-24T16:37:13.085Z,1.73
2024-04-24T16:39:41.655Z,1.60
2024-04-24T16:42:08.455Z,1.83
2024-04-24T16:44:35.439Z,1.43
2024-04-24T16:47:02.254Z,1.50
2024-04-24T16:49:33.402Z,2.17
2024-04-24T16:52:01.462Z,2.65
2024-04-24T16:54:28.125Z,1.83
2024-04-24T16:56:54.760Z,1.80
2024-04-24T16:59:21.434Z,1.65
2024-04-24T17:01:48.059Z,1.95
2024-04-24T17:04:14.816Z,1.75
2024-04-24T17:06:41.476Z,1.77
2024-04-24T17:09:08.245Z,1.57
2024-04-24T17:11:35.973Z,2.40
2024-04-24T17:14:03.578Z,2.47
2024-04-24T17:16:30.412Z,1.80
2024-04-24T17:18:59.345Z,1.88
2024-04-24T17:21:26.035Z,2.73
2024-04-24T17:23:53.530Z,1.55
2024-04-24T17:26:29.640Z,1.70
2024-04-24T17:29:01.915Z,2.30
2024-04-24T17:31:28.776Z,2.20
2024-04-24T17:33:55.396Z,2.73
2024-04-24T17:36:22.543Z,2.20
2024-04-24T17:38:49.221Z,2.47
2024-04-24T17:41:15.877Z,1.60
2024-04-24T17:43:42.474Z,2.20
2024-04-24T17:46:09.093Z,1.90
2024-04-24T17:48:36.397Z,1.95
2024-04-24T17:51:04.994Z,1.88
2024-04-24T17:53:31.832Z,1.85
2024-04-24T17:55:58.592Z,1.67
2024-04-24T17:58:27.041Z,2.50
2024-04-24T18:00:54.733Z,2.08
2024-04-24T18:03:22.206Z,2.17
2024-04-24T18:05:49.792Z,1.75
2024-04-24T18:08:19.315Z,1.67
2024-04-24T18:10:46.219Z,1.57
2024-04-24T18:13:16.011Z,1.65
2024-04-24T18:15:46.445Z,1.42
2024-04-24T18:18:18.232Z,2.10
2024-04-24T18:20:44.994Z,2.33
2024-04-24T18:23:12.232Z,1.70
2024-04-24T18:25:38.921Z,1.40
2024-04-24T18:28:05.804Z,1.80
2024-04-24T18:30:32.462Z,1.88
2024-04-24T18:33:03.625Z,2.45
2024-04-24T18:35:30.815Z,1.30
2024-04-24T18:37:57.512Z,1.50
2024-04-24T18:40:24.175Z,1.80
2024-04-24T18:42:50.977Z,1.60
2024-04-24T18:45:17.727Z,2.08
2024-04-24T18:47:44.733Z,1.90
2024-04-24T18:50:11.435Z,1.92
2024-04-24T18:52:38.767Z,2.65
2024-04-24T18:55:06.296Z,2.35
2024-04-24T18:57:33.155Z,2.08
2024-04-24T19:00:00.368Z,1.90
2024-04-24T19:02:27.293Z,2.00
2024-04-24T19:04:53.916Z,2.50
2024-04-24T19:07:20.622Z,2.17
2024-04-24T19:09:47.287Z,2.15
2024-04-24T19:12:13.884Z,2.20
2024-04-24T19:14:40.615Z,2.00
2024-04-24T19:17:07.354Z,2.35
2024-04-24T19:19:34.056Z,2.08
2024-04-24T19:22:00.739Z,2.05
2024-04-24T19:24:27.926Z,1.33
2024-04-24T19:26:54.727Z,2.38
2024-04-24T19:29:21.387Z,2.33
2024-04-24T19:31:48.124Z,2.10
2024-04-24T19:34:14.809Z,2.60
2024-04-24T19:36:41.458Z,2.17
2024-04-24T19:39:08.050Z,2.20
2024-04-24T19:41:34.911Z,2.55
2024-04-24T19:44:03.757Z,2.33
2024-04-24T19:46:31.948Z,2.28
2024-04-24T19:48:58.588Z,2.03
2024-04-24T19:51:25.178Z,2.22
2024-04-24T19:53:54.813Z,2.00
2024-04-24T19:56:21.555Z,2.17
2024-04-24T19:58:48.237Z,2.50
2024-04-24T20:01:17.506Z,2.07
2024-04-24T20:03:44.304Z,2.65
2024-04-24T20:06:11.570Z,2.28
2024-04-24T20:08:38.497Z,2.33
2024-04-24T20:11:06.771Z,2.33
2024-04-24T20:13:34.940Z,2.23
2024-04-24T20:16:03.054Z,2.40
2024-04-24T20:18:29.864Z,3.30
2024-04-24T20:20:56.591Z,2.13
2024-04-24T20:23:23.234Z,2.45
2024-04-24T20:25:52.125Z,2.67
2024-04-24T20:28:18.807Z,3.20
2024-04-24T20:30:45.589Z,2.45
2024-04-24T20:33:12.434Z,2.47
2024-04-24T20:35:39.311Z,2.45
2024-04-24T20:38:06.003Z,2.20
2024-04-24T20:40:32.836Z,2.35
2024-04-24T20:42:59.674Z,2.22
2024-04-24T20:45:26.294Z,2.40
2024-04-24T20:47:53.075Z,2.47
2024-04-24T20:50:19.929Z,2.43
2024-04-24T20:52:46.563Z,2.38
2024-04-24T20:55:13.251Z,1.95
2024-04-24T20:57:39.881Z,2.58
2024-04-24T21:00:07.369Z,2.45
2024-04-24T21:02:34.602Z,2.13
2024-04-24T21:05:01.466Z,1.63
2024-04-24T21:07:28.214Z,2.40
2024-04-24T21:09:56.143Z,2.20
2024-04-24T21:12:22.866Z,2.67
2024-04-24T21:14:49.906Z,2.10
2024-04-24T21:17:17.875Z,2.35
2024-04-24T21:19:44.651Z,2.10
2024-04-24T21:22:11.288Z,2.03
2024-04-24T21:24:37.932Z,2.65
2024-04-24T21:27:04.893Z,2.60
2024-04-24T21:29:31.677Z,2.38
2024-04-24T21:31:58.389Z,2.60
2024-04-24T21:34:25.088Z,3.08
2024-04-24T21:36:51.755Z,3.10
2024-04-24T21:39:18.462Z,2.37
2024-04-24T21:41:45.332Z,2.50
2024-04-24T21:44:12.235Z,2.72
2024-04-24T21:46:38.975Z,3.05
2024-04-24T21:49:05.694Z,2.40
2024-04-24T21:51:32.346Z,2.60
2024-04-24T21:53:59.056Z,2.40
2024-04-24T21:56:25.930Z,2.30
2024-04-24T21:58:56.366Z,2.63
2024-04-24T22:01:23.096Z,2.60
2024-04-24T22:03:49.925Z,2.00
2024-04-24T22:06:20.386Z,2.75
2024-04-24T22:08:48.500Z,2.53
2024-04-24T22:11:15.286Z,2.45
2024-04-24T22:13:41.938Z,2.45
2024-04-24T22:16:08.781Z,2.07
2024-04-24T22:18:36.093Z,2.03
2024-04-24T22:21:02.935Z,2.20
2024-04-24T22:23:30.030Z,1.80
2024-04-24T22:25:57.056Z,2.20
2024-04-24T22:28:23.829Z,2.33
2024-04-24T22:30:50.518Z,2.20
2024-04-24T22:33:17.285Z,2.47
2024-04-24T22:35:43.995Z,2.22
2024-04-24T22:38:12.140Z,2.50
2024-04-24T22:40:39.427Z,2.10
2024-04-24T22:43:06.064Z,2.25
2024-04-24T22:45:32.710Z,2.67
2024-04-24T22:47:59.513Z,1.85
2024-04-24T22:50:26.264Z,2.38
2024-04-24T22:52:52.985Z,2.37
2024-04-24T22:55:20.166Z,2.60
2024-04-24T22:57:47.169Z,2.30
2024-04-24T23:00:18.769Z,2.25
2024-04-24T23:02:45.616Z,2.75
2024-04-24T23:05:12.532Z,2.30
2024-04-24T23:07:39.347Z,2.40
2024-04-24T23:10:06.277Z,2.47
2024-04-24T23:12:32.917Z,2.05
2024-04-24T23:14:59.574Z,2.03
2024-04-24T23:17:26.511Z,3.13
2024-04-24T23:19:53.219Z,2.20
2024-04-24T23:22:19.859Z,2.97
2024-04-24T23:24:46.623Z,3.10
2024-04-24T23:27:13.305Z,2.47
2024-04-24T23:29:40.045Z,2.27
2024-04-24T23:32:06.830Z,2.33
2024-04-24T23:34:33.541Z,2.35
2024-04-24T23:37:00.159Z,2.67
2024-04-24T23:39:26.824Z,2.30
2024-04-24T23:41:53.531Z,2.13
2024-04-24T23:44:20.239Z,2.83
2024-04-24T23:46:51.708Z,2.55
2024-04-24T23:49:18.400Z,2.28
2024-04-24T23:51:45.091Z,2.40
2024-04-24T23:54:11.856Z,2.07
2024-04-24T23:56:38.794Z,2.63
2024-04-24T23:59:05.605Z,2.75
